Aviation Digital Data Service (ADDS)

Output produced by TAFs form (0435 UTC 22 September 2017)
found at http://www.aviationweather.gov/adds/tafs/
 
METAR text: RJTF 220400Z 01004KT 330V050 9999 FEW040 SCT060 BKN180 24/16 Q1017
Conditions at: RJTF (CHOFU AIRPORT , JP) observed 0400 UTC 22 September 2017
Temperature: 24.0°C (75°F)
Dewpoint: 16.0°C (61°F) [RH = 61%]
Pressure (altimeter): 30.03 inches Hg (1017.0 mb)
Winds: from the N (10 degrees) at 5 MPH (4 knots; 2.1 m/s)
Visibility: 6 or more miles (10+ km)
Ceiling: 18000 feet AGL
Clouds: few clouds at 4000 feet AGL
scattered clouds at 6000 feet AGL
broken clouds at 18000 feet AGL
Weather: no significant weather observed at this time